Time;durP1;ratioP1;P1;durP2;ratioP2;P2;SDS_P1;SDS_P2;PMS_P1;PMS_P2;Temp;Humidity;BMP_temperature;BMP_pressure;BME280_temperature;BME280_humidity;BME280_pressure;Samples;Min_cycle;Max_cycle;Signal;HPM_P1;HPM_P2
2021/05/30 00:00:47;;;;;;;4.78;4.25;;;9.30;99.90;;;;;;5045337;28;20216;-71
2021/05/30 00:03:14;;;;;;;2.72;2.50;;;9.30;99.90;;;;;;5046692;28;20570;-72
2021/05/30 00:05:40;;;;;;;2.85;2.25;;;9.20;99.90;;;;;;5048877;28;20224;-71
2021/05/30 00:08:07;;;;;;;2.45;2.13;;;9.20;99.90;;;;;;5049324;28;20474;-72
2021/05/30 00:10:33;;;;;;;2.33;2.13;;;9.20;99.90;;;;;;5048729;28;20216;-72
2021/05/30 00:13:00;;;;;;;2.20;2.00;;;9.10;99.90;;;;;;5050590;28;20254;-72
2021/05/30 00:15:26;;;;;;;2.22;2.03;;;9.10;99.90;;;;;;5048604;28;20735;-72
2021/05/30 00:17:53;;;;;;;2.67;2.45;;;9.00;99.90;;;;;;5049605;28;20201;-72
2021/05/30 00:20:20;;;;;;;3.28;2.35;;;9.00;99.90;;;;;;5050222;28;20587;-72
2021/05/30 00:22:46;;;;;;;2.80;2.60;;;9.00;99.90;;;;;;5050068;28;20292;-72
2021/05/30 00:25:13;;;;;;;3.05;2.40;;;8.90;99.90;;;;;;5035758;28;20658;-72
2021/05/30 00:27:39;;;;;;;3.20;2.63;;;8.90;99.90;;;;;;5030612;28;20197;-72
2021/05/30 00:30:07;;;;;;;2.60;2.40;;;8.90;99.90;;;;;;5030108;28;20206;-72
2021/05/30 00:32:33;;;;;;;4.72;2.13;;;8.80;99.90;;;;;;5030294;28;20221;-72
2021/05/30 00:35:00;;;;;;;3.15;2.20;;;8.80;99.90;;;;;;5029941;28;20584;-72
2021/05/30 00:37:27;;;;;;;4.55;3.00;;;8.80;99.90;;;;;;5030089;28;20647;-72
2021/05/30 00:39:53;;;;;;;2.80;2.40;;;8.80;99.90;;;;;;5029727;28;20205;-72
2021/05/30 00:42:19;;;;;;;2.88;2.63;;;8.70;99.90;;;;;;5030205;28;20202;-72
2021/05/30 00:44:46;;;;;;;2.45;2.25;;;8.70;99.90;;;;;;5029959;28;20206;-71
2021/05/30 00:47:12;;;;;;;2.50;2.30;;;8.70;99.90;;;;;;5029980;28;20784;-72
2021/05/30 00:49:38;;;;;;;3.22;2.20;;;8.70;99.90;;;;;;5029778;28;20218;-72
2021/05/30 00:52:07;;;;;;;2.45;2.08;;;8.70;99.90;;;;;;5030026;28;20709;-72
2021/05/30 00:54:36;;;;;;;2.55;2.35;;;8.60;99.90;;;;;;5030132;28;20210;-72
2021/05/30 00:57:04;;;;;;;2.40;2.20;;;8.60;99.90;;;;;;5029708;28;20236;-72
2021/05/30 00:59:30;;;;;;;2.85;2.50;;;8.60;99.90;;;;;;5029566;28;20205;-72
2021/05/30 01:01:56;;;;;;;2.97;2.30;;;8.60;99.90;;;;;;5029622;28;20198;-72
2021/05/30 01:04:22;;;;;;;3.35;2.50;;;8.60;99.90;;;;;;5029737;28;20681;-71
2021/05/30 01:06:53;;;;;;;2.90;2.60;;;8.60;99.90;;;;;;5029688;28;20225;-71
2021/05/30 01:09:20;;;;;;;5.35;2.30;;;8.50;99.90;;;;;;5030656;28;20205;-72
2021/05/30 01:11:47;;;;;;;3.00;2.70;;;8.50;99.90;;;;;;5033173;28;20268;-72
2021/05/30 01:14:14;;;;;;;3.78;2.40;;;8.40;99.90;;;;;;5033438;28;20739;-71
2021/05/30 01:16:41;;;;;;;2.78;2.40;;;8.40;99.90;;;;;;5033137;28;20283;-73
2021/05/30 01:19:10;;;;;;;2.30;2.10;;;8.40;99.90;;;;;;5032978;28;20304;-73
2021/05/30 01:21:37;;;;;;;2.95;2.67;;;8.40;99.90;;;;;;5033166;28;20673;-72
2021/05/30 01:24:06;;;;;;;2.60;2.40;;;8.40;99.90;;;;;;5033018;28;20210;-72
2021/05/30 01:26:32;;;;;;;3.10;2.80;;;8.30;99.90;;;;;;5033116;28;20218;-72
2021/05/30 01:28:58;;;;;;;2.80;2.40;;;8.40;99.90;;;;;;5032754;28;20220;-72
2021/05/30 01:31:25;;;;;;;2.50;2.30;;;8.30;99.90;;;;;;5032998;28;20237;-73
2021/05/30 01:33:51;;;;;;;3.85;2.45;;;8.30;99.90;;;;;;5032876;28;20214;-72
2021/05/30 01:36:17;;;;;;;2.65;2.28;;;8.30;99.90;;;;;;5033083;28;20226;-72
2021/05/30 01:38:43;;;;;;;2.60;2.40;;;8.30;99.90;;;;;;5032746;28;20676;-72
2021/05/30 01:41:10;;;;;;;2.60;2.40;;;8.30;99.90;;;;;;5033195;28;20193;-72
2021/05/30 01:43:36;;;;;;;3.67;2.45;;;8.20;99.90;;;;;;5033446;28;20206;-72
2021/05/30 01:46:03;;;;;;;2.60;2.40;;;8.20;99.90;;;;;;5032899;28;20694;-72
2021/05/30 01:48:29;;;;;;;3.80;2.85;;;8.10;99.90;;;;;;5032540;28;20300;-72
2021/05/30 01:50:56;;;;;;;2.90;2.70;;;8.20;99.90;;;;;;5032730;28;20622;-73
2021/05/30 01:53:33;;;;;;;3.30;2.58;;;8.10;99.90;;;;;;5032711;28;20206;-72
2021/05/30 01:58:45;;;;;;;3.65;2.70;;;8.10;99.90;;;;;;5032464;28;20209;-72
2021/05/30 02:01:13;;;;;;;3.50;2.78;;;8.10;99.90;;;;;;5032665;28;20657;-72
2021/05/30 02:03:41;;;;;;;2.60;2.40;;;8.10;99.90;;;;;;5032505;28;20221;-72
2021/05/30 02:06:08;;;;;;;3.08;2.50;;;8.10;99.90;;;;;;5032453;28;20230;-72
2021/05/30 02:08:38;;;;;;;3.15;2.85;;;8.10;99.90;;;;;;5032363;28;20202;-72
2021/05/30 02:11:08;;;;;;;2.60;2.40;;;8.00;99.90;;;;;;5032333;28;20222;-72
2021/05/30 02:13:35;;;;;;;2.67;2.47;;;8.00;99.90;;;;;;5032605;28;20582;-72
2021/05/30 02:16:03;;;;;;;2.67;2.47;;;7.90;99.90;;;;;;5032057;28;20268;-72
2021/05/30 02:18:29;;;;;;;3.38;3.08;;;8.00;99.90;;;;;;5032158;28;20563;-72
2021/05/30 02:20:55;;;;;;;3.20;2.70;;;8.00;99.90;;;;;;5031473;28;20202;-72
2021/05/30 02:23:22;;;;;;;2.95;2.38;;;8.00;99.90;;;;;;5032157;28;20244;-72
2021/05/30 02:25:48;;;;;;;3.65;2.70;;;8.00;99.90;;;;;;5032194;28;20228;-72
2021/05/30 02:28:14;;;;;;;4.38;2.60;;;7.90;99.90;;;;;;5031936;28;20237;-72
2021/05/30 02:30:40;;;;;;;3.20;2.90;;;8.00;99.90;;;;;;5032317;28;20633;-72
2021/05/30 02:33:08;;;;;;;2.83;2.60;;;8.00;99.90;;;;;;5031697;28;20228;-72
2021/05/30 02:35:34;;;;;;;3.03;2.72;;;7.90;99.90;;;;;;5031926;28;20234;-72
2021/05/30 02:38:01;;;;;;;4.00;2.85;;;7.90;99.90;;;;;;5031542;28;20201;-72
2021/05/30 02:40:27;;;;;;;3.00;2.70;;;7.90;99.90;;;;;;5032935;28;20209;-72
2021/05/30 02:42:53;;;;;;;3.05;2.75;;;7.90;99.90;;;;;;5031779;28;20205;-72
2021/05/30 02:45:19;;;;;;;3.67;2.45;;;7.80;99.90;;;;;;5031836;28;20232;-72
2021/05/30 02:47:45;;;;;;;5.10;2.80;;;7.80;99.90;;;;;;5031504;28;20206;-72
2021/05/30 02:50:13;;;;;;;3.13;2.75;;;7.80;99.90;;;;;;5031628;28;20296;-72
2021/05/30 02:52:40;;;;;;;3.15;2.63;;;7.80;99.90;;;;;;5031686;28;20225;-72
2021/05/30 02:55:07;;;;;;;7.60;3.53;;;7.70;99.90;;;;;;5031475;28;20208;-72
2021/05/30 02:57:33;;;;;;;3.10;2.80;;;7.70;99.90;;;;;;5031589;28;20201;-72
2021/05/30 03:00:00;;;;;;;2.90;2.70;;;7.70;99.90;;;;;;5031444;28;20205;-72
2021/05/30 03:02:26;;;;;;;2.92;2.58;;;7.70;99.90;;;;;;5031477;28;20197;-72
2021/05/30 03:04:52;;;;;;;2.78;2.58;;;7.60;99.90;;;;;;5031140;28;20209;-72
2021/05/30 03:07:19;;;;;;;3.47;2.85;;;7.60;99.90;;;;;;5031520;28;20205;-72
2021/05/30 03:09:45;;;;;;;4.38;2.60;;;7.60;99.90;;;;;;5031498;28;20216;-72
2021/05/30 03:12:12;;;;;;;2.90;2.60;;;7.50;99.90;;;;;;5031285;28;20222;-72
2021/05/30 03:14:38;;;;;;;3.42;3.13;;;7.50;99.90;;;;;;5031270;28;20206;-72
2021/05/30 03:17:04;;;;;;;3.40;3.10;;;7.50;99.90;;;;;;5030859;28;20233;-72
2021/05/30 03:19:31;;;;;;;4.15;2.90;;;7.50;99.90;;;;;;5031050;28;20206;-72
2021/05/30 03:21:57;;;;;;;2.50;2.30;;;7.50;99.90;;;;;;5031117;28;20197;-72
2021/05/30 03:24:24;;;;;;;3.33;2.80;;;7.50;99.90;;;;;;5031119;28;20585;-72
2021/05/30 03:26:51;;;;;;;3.08;2.78;;;7.50;99.90;;;;;;5031021;28;20225;-72
2021/05/30 03:29:17;;;;;;;2.72;2.50;;;7.50;99.90;;;;;;5030909;28;20575;-72
2021/05/30 03:31:44;;;;;;;2.95;2.72;;;7.50;99.90;;;;;;5030790;28;20221;-72
2021/05/30 03:34:10;;;;;;;3.42;3.13;;;7.40;99.90;;;;;;5031045;28;20221;-72
2021/05/30 03:36:36;;;;;;;3.55;3.25;;;7.40;99.90;;;;;;5031201;28;20221;-72
2021/05/30 03:39:05;;;;;;;3.30;3.00;;;7.40;99.90;;;;;;5030577;28;20208;-72
2021/05/30 03:41:36;;;;;;;4.40;3.05;;;7.40;99.90;;;;;;5030847;28;20613;-72
2021/05/30 03:44:03;;;;;;;3.05;2.75;;;7.40;99.90;;;;;;5030580;28;20202;-72
2021/05/30 03:46:30;;;;;;;3.60;2.80;;;7.40;99.90;;;;;;5030625;28;20232;-72
2021/05/30 03:48:56;;;;;;;3.05;2.75;;;7.40;99.90;;;;;;5030335;28;20291;-72
2021/05/30 03:51:23;;;;;;;4.00;3.60;;;7.40;99.90;;;;;;5030396;28;20263;-72
2021/05/30 03:53:49;;;;;;;3.45;3.15;;;7.30;99.90;;;;;;5030398;28;20206;-72
2021/05/30 03:56:15;;;;;;;3.63;3.22;;;7.40;99.90;;;;;;5030713;28;20660;-72
2021/05/30 03:58:42;;;;;;;6.43;3.05;;;7.30;99.90;;;;;;5030274;28;20259;-72
2021/05/30 04:01:08;;;;;;;3.70;3.20;;;7.30;99.90;;;;;;5030417;28;20213;-72
2021/05/30 04:03:35;;;;;;;4.15;3.13;;;7.40;99.90;;;;;;5030489;28;20628;-72
2021/05/30 04:06:01;;;;;;;8.65;3.08;;;7.40;99.90;;;;;;5030310;28;20226;-72
2021/05/30 04:08:28;;;;;;;3.67;3.28;;;7.50;99.90;;;;;;5030156;28;20206;-72
2021/05/30 04:10:54;;;;;;;4.50;3.17;;;7.50;99.90;;;;;;5030536;28;20252;-72
2021/05/30 04:13:20;;;;;;;4.35;3.38;;;7.50;99.90;;;;;;5030466;28;20226;-72
2021/05/30 04:15:47;;;;;;;3.72;3.38;;;7.50;99.90;;;;;;5030104;28;20237;-72
2021/05/30 04:18:13;;;;;;;3.78;3.47;;;7.50;99.90;;;;;;5030110;28;20202;-72
2021/05/30 04:20:39;;;;;;;4.07;3.20;;;7.60;99.90;;;;;;5030387;28;20739;-72
2021/05/30 04:23:06;;;;;;;3.70;3.30;;;7.60;99.90;;;;;;5030361;28;20206;-72
2021/05/30 04:25:32;;;;;;;3.72;3.35;;;7.60;99.90;;;;;;5030000;28;20222;-72
2021/05/30 04:27:58;;;;;;;4.15;3.28;;;7.70;99.90;;;;;;5029799;28;20670;-72
2021/05/30 04:30:24;;;;;;;4.45;3.50;;;7.70;99.90;;;;;;5030454;28;20209;-72
2021/05/30 04:32:51;;;;;;;3.80;3.08;;;7.70;99.90;;;;;;5030096;28;20229;-72
2021/05/30 04:35:18;;;;;;;3.78;3.28;;;7.80;99.90;;;;;;5030118;28;20221;-72
2021/05/30 04:37:44;;;;;;;3.78;3.47;;;7.80;99.90;;;;;;5029838;28;20719;-72
2021/05/30 04:40:11;;;;;;;3.30;2.95;;;7.80;99.90;;;;;;5030235;28;20206;-72
2021/05/30 04:42:38;;;;;;;3.47;3.17;;;7.90;99.90;;;;;;5030195;28;20209;-72
2021/05/30 04:45:06;;;;;;;3.75;3.45;;;7.90;99.90;;;;;;5032226;28;20234;-72
2021/05/30 04:47:32;;;;;;;3.20;3.00;;;8.00;99.90;;;;;;5033857;28;20209;-72
2021/05/30 04:49:59;;;;;;;3.10;2.80;;;8.10;99.90;;;;;;5033517;28;20253;-72
2021/05/30 04:52:26;;;;;;;5.47;3.47;;;8.10;99.90;;;;;;5033830;28;20228;-72
2021/05/30 04:54:52;;;;;;;3.08;2.85;;;8.20;99.90;;;;;;5033673;28;20213;-72
2021/05/30 04:57:18;;;;;;;9.43;3.42;;;8.30;99.90;;;;;;5033868;28;20198;-72
2021/05/30 04:59:44;;;;;;;4.05;2.83;;;8.30;99.90;;;;;;5033428;28;20206;-72
2021/05/30 05:02:10;;;;;;;3.50;3.20;;;8.30;99.90;;;;;;5033634;28;20205;-72
2021/05/30 05:04:37;;;;;;;4.45;3.67;;;8.40;99.90;;;;;;5033825;28;20206;-72
2021/05/30 05:07:04;;;;;;;4.03;3.63;;;8.50;99.90;;;;;;5033324;28;20230;-72
2021/05/30 05:09:30;;;;;;;3.80;3.47;;;8.50;99.90;;;;;;5033417;28;20206;-72
2021/05/30 05:11:57;;;;;;;3.50;3.20;;;8.60;99.90;;;;;;5033295;28;20217;-72
2021/05/30 05:14:23;;;;;;;4.30;4.00;;;8.70;99.90;;;;;;5033633;28;20202;-72
2021/05/30 05:16:49;;;;;;;4.20;3.80;;;8.80;99.90;;;;;;5033306;28;20579;-72
2021/05/30 05:19:15;;;;;;;4.10;3.58;;;8.90;99.90;;;;;;5033413;28;20206;-72
2021/05/30 05:21:42;;;;;;;4.55;3.60;;;9.10;99.90;;;;;;5033446;28;20575;-72
2021/05/30 05:24:09;;;;;;;5.07;3.78;;;9.20;99.90;;;;;;5033296;28;20202;-72
2021/05/30 05:26:35;;;;;;;3.75;3.45;;;9.30;99.90;;;;;;5033289;28;20292;-72
2021/05/30 05:29:01;;;;;;;4.22;3.42;;;9.40;99.90;;;;;;5032689;28;20558;-71
2021/05/30 05:31:28;;;;;;;3.65;3.35;;;9.60;99.90;;;;;;5033081;28;20222;-72
2021/05/30 05:33:54;;;;;;;4.05;3.63;;;9.70;99.90;;;;;;5033016;28;20206;-72
2021/05/30 05:36:20;;;;;;;4.53;3.60;;;9.90;99.90;;;;;;5033071;28;20237;-71
2021/05/30 05:38:46;;;;;;;4.00;3.70;;;10.00;99.90;;;;;;5032730;28;20554;-71
2021/05/30 05:41:13;;;;;;;3.85;3.40;;;10.10;99.90;;;;;;5032949;28;20206;-72
2021/05/30 05:43:40;;;;;;;4.15;3.50;;;10.20;99.90;;;;;;5033278;28;20205;-71
2021/05/30 05:46:06;;;;;;;4.32;3.63;;;10.30;99.90;;;;;;5032743;28;20279;-71
2021/05/30 05:48:34;;;;;;;4.20;3.58;;;10.40;99.90;;;;;;5032535;28;20198;-72
2021/05/30 05:51:00;;;;;;;3.85;3.45;;;10.40;99.90;;;;;;5032720;28;20831;-72
2021/05/30 05:53:26;;;;;;;4.57;3.85;;;10.50;99.90;;;;;;5032680;28;20284;-72
2021/05/30 05:55:53;;;;;;;3.70;3.28;;;10.60;99.90;;;;;;5031266;28;20229;-71
2021/05/30 05:58:20;;;;;;;3.70;3.40;;;10.70;99.90;;;;;;5032469;28;20209;-72
2021/05/30 06:00:46;;;;;;;3.35;3.05;;;10.80;99.90;;;;;;5032589;28;20259;-71
2021/05/30 06:03:12;;;;;;;3.47;3.17;;;10.90;99.90;;;;;;5032733;28;20201;-72
2021/05/30 06:05:38;;;;;;;4.03;3.40;;;11.00;99.90;;;;;;5032574;28;20225;-72
2021/05/30 06:08:05;;;;;;;3.50;3.10;;;11.20;99.90;;;;;;5032181;28;20736;-72
2021/05/30 06:10:32;;;;;;;3.70;3.33;;;11.30;99.90;;;;;;5032496;28;20197;-72
2021/05/30 06:13:00;;;;;;;3.50;3.20;;;11.40;99.90;;;;;;5032364;28;20230;-71
2021/05/30 06:15:28;;;;;;;3.53;3.03;;;11.50;99.90;;;;;;5037574;28;20295;-71
2021/05/30 06:17:56;;;;;;;4.90;3.53;;;11.60;99.90;;;;;;5044737;28;20202;-71
2021/05/30 06:20:23;;;;;;;3.70;3.27;;;11.70;99.90;;;;;;5040142;28;20637;-71
2021/05/30 06:22:50;;;;;;;3.13;2.90;;;11.80;99.90;;;;;;5043607;28;20461;-71
2021/05/30 06:25:16;;;;;;;3.80;3.03;;;11.90;99.90;;;;;;5042113;28;20541;-71
2021/05/30 06:27:42;;;;;;;3.67;3.10;;;12.00;99.90;;;;;;5045875;28;20874;-71
2021/05/30 06:30:09;;;;;;;2.80;2.30;;;12.00;99.90;;;;;;5040938;28;20201;-70
2021/05/30 06:32:36;;;;;;;2.53;2.30;;;12.10;99.90;;;;;;5040990;28;20583;-70
2021/05/30 06:35:04;;;;;;;3.47;2.63;;;12.30;99.90;;;;;;5042363;28;20552;-70
2021/05/30 06:37:30;;;;;;;2.80;2.60;;;12.30;99.90;;;;;;5044264;28;20208;-70
2021/05/30 06:39:57;;;;;;;2.97;2.67;;;12.40;99.90;;;;;;5052674;28;20470;-70
2021/05/30 06:42:23;;;;;;;3.45;2.65;;;12.60;99.90;;;;;;5051735;28;20974;-70
2021/05/30 06:44:49;;;;;;;3.07;2.80;;;12.70;99.90;;;;;;5042405;28;20248;-71
2021/05/30 06:47:15;;;;;;;3.70;2.73;;;12.70;99.90;;;;;;5031917;28;20468;-71
2021/05/30 06:49:43;;;;;;;4.47;2.80;;;12.80;99.90;;;;;;5031386;28;20834;-70
2021/05/30 06:52:09;;;;;;;3.07;2.80;;;12.80;99.90;;;;;;5031259;28;20480;-71
2021/05/30 06:54:36;;;;;;;3.97;2.90;;;12.90;99.90;;;;;;5031638;28;20865;-73
2021/05/30 06:57:03;;;;;;;3.07;2.77;;;13.00;99.90;;;;;;5031538;28;20850;-72
2021/05/30 06:59:29;;;;;;;3.23;2.90;;;13.00;99.90;;;;;;5030995;28;20887;-72
2021/05/30 07:01:55;;;;;;;4.73;3.10;;;13.10;99.90;;;;;;5031625;28;20452;-72
2021/05/30 07:04:22;;;;;;;2.90;2.60;;;13.20;99.90;;;;;;5031353;28;20468;-72
2021/05/30 07:06:49;;;;;;;3.70;3.30;;;13.30;99.90;;;;;;5030103;28;20627;-73
2021/05/30 07:09:16;;;;;;;3.30;3.00;;;13.40;99.90;;;;;;5030792;28;20202;-71
2021/05/30 07:11:42;;;;;;;3.20;2.90;;;13.50;99.90;;;;;;5031128;28;20492;-73
2021/05/30 07:14:08;;;;;;;4.30;3.17;;;13.60;99.90;;;;;;5031144;28;20858;-73
2021/05/30 07:16:34;;;;;;;3.30;2.83;;;13.70;99.90;;;;;;5031143;28;20833;-76
2021/05/30 07:19:00;;;;;;;3.40;2.50;;;13.80;99.90;;;;;;5030905;28;20537;-74
2021/05/30 07:21:27;;;;;;;4.33;2.97;;;13.90;99.90;;;;;;5030835;28;20487;-73
2021/05/30 07:23:54;;;;;;;3.67;3.37;;;14.00;99.90;;;;;;5031056;28;20920;-72
2021/05/30 07:26:20;;;;;;;3.30;3.03;;;14.10;99.90;;;;;;5030933;28;20916;-72
2021/05/30 07:28:46;;;;;;;3.10;2.70;;;14.20;99.90;;;;;;5030781;28;20464;-71
2021/05/30 07:31:13;;;;;;;3.20;2.90;;;14.30;99.90;;;;;;5030763;28;20514;-73
2021/05/30 07:33:39;;;;;;;2.80;2.60;;;14.30;99.30;;;;;;5030659;28;20487;-71
2021/05/30 07:36:06;;;;;;;3.63;3.10;;;14.30;99.70;;;;;;5030678;28;20484;-73
2021/05/30 07:38:33;;;;;;;3.23;2.93;;;14.40;99.80;;;;;;5030409;28;20464;-72
2021/05/30 07:41:01;;;;;;;2.87;2.67;;;14.40;99.60;;;;;;5057851;28;20458;-72
2021/05/30 07:43:27;;;;;;;3.13;2.83;;;14.50;98.80;;;;;;5070246;28;20465;-73
2021/05/30 07:45:54;;;;;;;3.07;2.87;;;14.50;99.80;;;;;;5070671;28;20618;-74
2021/05/30 07:48:20;;;;;;;2.77;2.57;;;14.60;98.80;;;;;;5070125;28;20450;-71
2021/05/30 07:50:47;;;;;;;3.10;2.70;;;14.70;98.90;;;;;;5063297;28;20475;-72
2021/05/30 07:53:13;;;;;;;3.10;2.43;;;14.70;98.70;;;;;;5048212;28;20587;-72
2021/05/30 07:55:40;;;;;;;3.00;2.70;;;14.70;97.50;;;;;;5048765;28;20986;-72
2021/05/30 07:58:07;;;;;;;3.90;3.10;;;14.80;98.30;;;;;;5048771;28;20459;-70
2021/05/30 08:00:34;;;;;;;2.40;2.20;;;15.00;99.80;;;;;;5048220;28;20470;-76
2021/05/30 08:03:00;;;;;;;4.90;2.60;;;15.10;98.70;;;;;;5049136;28;20952;-72
2021/05/30 08:05:27;;;;;;;3.47;3.17;;;15.30;99.30;;;;;;5048080;28;20570;-72
2021/05/30 08:07:53;;;;;;;2.90;2.63;;;15.40;98.70;;;;;;5048513;28;20462;-73
2021/05/30 08:10:24;;;;;;;3.33;2.90;;;15.50;96.70;;;;;;5048409;28;20463;-72
2021/05/30 08:12:51;;;;;;;4.93;2.90;;;15.50;95.50;;;;;;5048679;28;20486;-71
2021/05/30 08:15:18;;;;;;;4.73;3.47;;;15.50;97.40;;;;;;5048516;28;20530;-70
2021/05/30 08:17:46;;;;;;;3.20;2.80;;;15.60;96.80;;;;;;5048463;28;20502;-71
2021/05/30 08:20:13;;;;;;;4.23;2.80;;;15.70;97.20;;;;;;5049841;28;20463;-71
2021/05/30 08:22:41;;;;;;;3.17;2.87;;;15.80;97.80;;;;;;5052850;28;20831;-71
2021/05/30 08:25:09;;;;;;;3.50;2.87;;;15.80;98.20;;;;;;5065684;28;20465;-73
2021/05/30 08:27:36;;;;;;;3.13;2.83;;;15.70;96.60;;;;;;5072678;28;20553;-71
2021/05/30 08:30:03;;;;;;;3.43;2.50;;;15.70;97.50;;;;;;5072475;28;20469;-72
2021/05/30 08:32:31;;;;;;;3.43;3.13;;;15.80;98.70;;;;;;5072329;28;20493;-72
2021/05/30 08:34:58;;;;;;;3.00;2.80;;;16.10;99.10;;;;;;5072581;28;20470;-72
2021/05/30 08:37:25;;;;;;;3.90;3.20;;;16.30;96.40;;;;;;5072139;28;20450;-72
2021/05/30 08:39:52;;;;;;;4.30;2.90;;;16.50;96.80;;;;;;5034334;28;20476;-72
2021/05/30 08:42:20;;;;;;;2.90;2.70;;;16.40;94.30;;;;;;5052007;28;20487;-71
2021/05/30 08:44:47;;;;;;;2.63;2.27;;;16.40;95.90;;;;;;5052560;28;20513;-71
2021/05/30 08:47:13;;;;;;;3.60;2.70;;;16.60;93.40;;;;;;5052316;28;20491;-71
2021/05/30 08:49:41;;;;;;;3.67;2.60;;;16.80;94.30;;;;;;5049400;28;20455;-71
2021/05/30 08:52:07;;;;;;;2.93;2.33;;;17.00;92.50;;;;;;5051829;28;20495;-71
2021/05/30 08:54:34;;;;;;;2.70;2.50;;;17.10;92.50;;;;;;5051564;28;20466;-71
2021/05/30 08:57:01;;;;;;;3.33;2.70;;;17.10;92.30;;;;;;5051663;28;20483;-71
2021/05/30 08:59:32;;;;;;;2.83;2.53;;;17.20;93.00;;;;;;5051643;28;20463;-71
2021/05/30 09:02:00;;;;;;;2.77;2.40;;;17.30;93.10;;;;;;5051894;28;20463;-71
2021/05/30 09:04:33;;;;;;;2.57;2.37;;;17.40;94.50;;;;;;5051738;28;20565;-71
2021/05/30 09:07:00;;;;;;;2.80;2.53;;;17.60;92.70;;;;;;5051953;28;20486;-72
2021/05/30 09:09:36;;;;;;;3.53;2.63;;;17.50;92.20;;;;;;5051180;28;20839;-71
2021/05/30 09:12:02;;;;;;;2.97;2.67;;;17.40;92.20;;;;;;5051577;28;20486;-71
2021/05/30 09:14:31;;;;;;;4.00;2.47;;;17.40;93.00;;;;;;5051752;28;20598;-72
2021/05/30 09:17:01;;;;;;;3.77;2.67;;;17.60;93.50;;;;;;5051392;28;20495;-72
2021/05/30 09:19:37;;;;;;;2.60;2.40;;;17.90;93.10;;;;;;5050852;28;20809;-72
2021/05/30 09:22:23;;;;;;;2.97;2.50;;;18.00;92.80;;;;;;5051070;28;20454;-72
2021/05/30 09:25:18;;;;;;;2.57;1.97;;;17.80;90.30;;;;;;5051484;28;20456;-72
2021/05/30 09:27:47;;;;;;;2.50;2.30;;;17.70;92.10;;;;;;5049838;28;20452;-71
2021/05/30 09:30:21;;;;;;;2.67;2.40;;;17.50;90.70;;;;;;5050556;28;20460;-71
2021/05/30 09:33:03;;;;;;;4.73;2.80;;;17.30;90.90;;;;;;5051166;28;20490;-72
2021/05/30 09:35:51;;;;;;;3.23;2.77;;;17.30;91.70;;;;;;5050607;28;20586;-71
2021/05/30 09:38:21;;;;;;;2.83;2.47;;;17.50;91.60;;;;;;5050536;28;20497;-72
2021/05/30 09:40:50;;;;;;;4.27;2.60;;;17.60;91.60;;;;;;5050907;28;20473;-72
2021/05/30 09:43:17;;;;;;;2.43;2.23;;;17.60;91.20;;;;;;5050812;28;20451;-72
2021/05/30 09:45:58;;;;;;;3.90;2.90;;;17.70;92.00;;;;;;5050952;28;20569;-72
2021/05/30 09:48:24;;;;;;;2.97;2.67;;;18.00;91.80;;;;;;5050163;28;20443;-72
2021/05/30 09:51:04;;;;;;;6.70;2.87;;;18.10;92.30;;;;;;5049126;28;20456;-72
2021/05/30 09:53:52;;;;;;;3.10;2.80;;;18.20;92.00;;;;;;5041123;28;20533;-72
2021/05/30 09:56:29;;;;;;;2.87;2.67;;;18.00;91.80;;;;;;5043026;28;20521;-72
2021/05/30 09:58:56;;;;;;;3.00;2.80;;;17.80;91.30;;;;;;5040554;28;20936;-70
2021/05/30 10:01:23;;;;;;;2.40;2.20;;;17.90;92.60;;;;;;5041204;28;20521;-72
2021/05/30 10:03:49;;;;;;;5.83;2.90;;;18.20;93.10;;;;;;5039638;28;20456;-72
2021/05/30 10:06:16;;;;;;;5.10;3.20;;;18.60;92.40;;;;;;5040925;28;20512;-72
2021/05/30 10:08:44;;;;;;;6.00;4.10;;;18.90;92.30;;;;;;5039364;28;20460;-72
2021/05/30 10:11:11;;;;;;;5.07;2.90;;;19.10;91.90;;;;;;5039600;28;20459;-72
2021/05/30 10:13:37;;;;;;;3.37;2.80;;;19.10;91.40;;;;;;5041233;28;20493;-72
2021/05/30 10:16:04;;;;;;;4.07;3.07;;;18.90;90.60;;;;;;5039100;28;20484;-72
2021/05/30 10:18:35;;;;;;;3.87;3.30;;;18.60;90.30;;;;;;5039290;28;20908;-71
2021/05/30 10:21:02;;;;;;;4.73;3.53;;;18.30;90.20;;;;;;5039113;28;20468;-71
2021/05/30 10:23:31;;;;;;;13.17;5.00;;;18.40;91.90;;;;;;5039403;28;20798;-72
2021/05/30 10:26:17;;;;;;;3.33;3.03;;;18.60;92.20;;;;;;5042445;28;21047;-72
2021/05/30 10:28:55;;;;;;;3.80;3.23;;;18.70;91.00;;;;;;5038436;28;20460;-71
2021/05/30 10:31:24;;;;;;;7.00;4.20;;;18.80;92.70;;;;;;5038539;28;20464;-71
2021/05/30 10:34:22;;;;;;;3.63;3.10;;;19.10;92.00;;;;;;5041334;28;20538;-71
2021/05/30 10:37:25;;;;;;;4.97;3.20;;;19.60;91.60;;;;;;4968037;28;20936;-71
2021/05/30 10:39:52;;;;;;;2.90;2.57;;;20.00;92.10;;;;;;5039801;28;20456;-71
2021/05/30 10:42:23;;;;;;;4.40;2.80;;;20.30;91.20;;;;;;5037319;28;20455;-71
2021/05/30 10:44:51;;;;;;;2.73;2.53;;;20.00;87.10;;;;;;5039786;28;20451;-71
2021/05/30 10:47:19;;;;;;;2.70;2.50;;;19.90;90.00;;;;;;5040410;28;20451;-71
2021/05/30 10:50:07;;;;;;;6.17;3.13;;;20.10;90.40;;;;;;5038381;28;20456;-72
2021/05/30 10:52:34;;;;;;;3.10;2.40;;;20.40;90.70;;;;;;5039825;28;20922;-72
2021/05/30 10:55:15;;;;;;;2.50;2.30;;;20.70;90.00;;;;;;5037379;28;20550;-71
2021/05/30 10:57:44;;;;;;;4.00;3.00;;;20.40;90.60;;;;;;5040461;28;20475;-71
2021/05/30 11:00:37;;;;;;;3.13;2.70;;;20.00;90.00;;;;;;5038867;28;20460;-72
2021/05/30 11:03:10;;;;;;;3.33;2.93;;;19.90;91.10;;;;;;5019079;28;20581;-72
2021/05/30 11:05:45;;;;;;;3.47;3.27;;;20.10;92.20;;;;;;5029391;28;20480;-71
2021/05/30 11:08:49;;;;;;;3.33;3.03;;;20.40;91.10;;;;;;5029150;28;20537;-72
2021/05/30 11:11:20;;;;;;;3.37;3.07;;;20.50;90.20;;;;;;5028931;28;20506;-72
2021/05/30 11:13:52;;;;;;;4.63;3.10;;;20.70;86.20;;;;;;5029103;28;20537;-72
2021/05/30 11:16:20;;;;;;;4.47;4.07;;;20.80;90.10;;;;;;5028899;28;21160;-72
2021/05/30 11:18:56;;;;;;;3.83;3.00;;;21.00;90.40;;;;;;5028794;28;21161;-72
2021/05/30 11:21:28;;;;;;;3.27;2.97;;;21.20;87.80;;;;;;5029139;28;20471;-72
2021/05/30 11:23:56;;;;;;;3.10;2.90;;;21.30;83.30;;;;;;5029010;28;20456;-72
2021/05/30 11:26:22;;;;;;;3.50;2.97;;;21.30;86.20;;;;;;5028811;28;20484;-71
2021/05/30 11:28:49;;;;;;;7.63;3.23;;;21.40;89.00;;;;;;5028874;28;20464;-72
2021/05/30 11:31:18;;;;;;;3.43;2.47;;;21.50;85.60;;;;;;5029099;28;20460;-72
2021/05/30 11:33:46;;;;;;;3.10;2.80;;;21.60;85.70;;;;;;5028650;28;20487;-72
2021/05/30 11:36:31;;;;;;;3.10;2.80;;;21.60;83.60;;;;;;5028843;28;20480;-72
2021/05/30 11:38:59;;;;;;;3.50;3.20;;;21.70;86.80;;;;;;5028933;28;20553;-71
2021/05/30 11:41:29;;;;;;;3.00;2.80;;;21.90;83.50;;;;;;5028620;28;20488;-71
2021/05/30 11:44:10;;;;;;;2.70;2.50;;;21.90;86.10;;;;;;5028885;28;20971;-71
2021/05/30 11:46:41;;;;;;;3.50;3.13;;;21.80;87.10;;;;;;5028842;28;20531;-72
2021/05/30 11:49:11;;;;;;;3.23;2.60;;;21.70;88.00;;;;;;5028224;28;20551;-71
2021/05/30 11:51:58;;;;;;;3.20;2.70;;;21.30;81.20;;;;;;5028389;28;20465;-71
2021/05/30 11:54:27;;;;;;;5.00;2.70;;;20.90;81.80;;;;;;5028568;28;20471;-70
2021/05/30 11:56:55;;;;;;;2.80;2.60;;;21.00;84.50;;;;;;5028566;28;20518;-71
2021/05/30 11:59:34;;;;;;;3.40;2.90;;;21.20;85.70;;;;;;5028280;28;20471;-70
2021/05/30 12:02:02;;;;;;;3.23;2.93;;;21.40;83.60;;;;;;5058225;28;20550;-71
2021/05/30 12:04:34;;;;;;;3.03;2.80;;;21.10;82.70;;;;;;5051353;28;20475;-71
2021/05/30 12:07:01;;;;;;;3.00;2.70;;;21.00;84.00;;;;;;5050198;28;20899;-71
2021/05/30 12:09:52;;;;;;;3.20;2.90;;;21.00;85.90;;;;;;5065143;28;20456;-71
2021/05/30 12:12:28;;;;;;;2.93;2.50;;;20.70;82.40;;;;;;5067987;28;20478;-70
2021/05/30 12:14:54;;;;;;;4.70;3.17;;;20.60;84.60;;;;;;5068221;28;20551;-70
2021/05/30 12:17:22;;;;;;;2.73;2.53;;;20.90;83.10;;;;;;5055794;28;20464;-71
2021/05/30 12:19:48;;;;;;;2.60;2.37;;;21.10;84.20;;;;;;5046488;28;20456;-70
2021/05/30 12:22:21;;;;;;;3.07;2.77;;;20.90;83.10;;;;;;5059196;28;20470;-69
2021/05/30 12:24:48;;;;;;;3.07;2.77;;;20.70;84.70;;;;;;5048989;28;20991;-70
2021/05/30 12:27:15;;;;;;;3.63;2.67;;;20.70;83.00;;;;;;5038752;28;20456;-72
2021/05/30 12:29:47;;;;;;;3.80;2.77;;;20.70;83.20;;;;;;5035096;28;20987;-71
2021/05/30 12:32:14;;;;;;;2.90;2.60;;;21.00;85.40;;;;;;5047099;28;20515;-71
2021/05/30 12:34:44;;;;;;;2.53;2.27;;;21.40;82.80;;;;;;5043477;28;21030;-71
2021/05/30 12:37:11;;;;;;;6.37;2.80;;;21.30;79.00;;;;;;5043302;28;20501;-71
2021/05/30 12:39:38;;;;;;;2.80;2.27;;;21.50;79.10;;;;;;5033108;28;20467;-71
2021/05/30 12:42:08;;;;;;;5.20;2.80;;;21.50;78.80;;;;;;5045055;28;20554;-71
2021/05/30 12:44:38;;;;;;;2.73;2.53;;;21.80;80.00;;;;;;5041870;28;20986;-70
2021/05/30 12:47:08;;;;;;;6.30;2.77;;;21.90;79.20;;;;;;5045096;28;20487;-70
2021/05/30 12:49:36;;;;;;;5.83;2.63;;;22.00;81.40;;;;;;5049828;28;20546;-70
2021/05/30 12:52:07;;;;;;;7.03;3.10;;;22.00;82.10;;;;;;5046779;28;20464;-70
2021/05/30 12:54:35;;;;;;;3.07;2.80;;;22.00;79.70;;;;;;5039192;28;20486;-71
2021/05/30 12:57:02;;;;;;;3.57;2.93;;;21.70;76.20;;;;;;5033104;28;20490;-72
2021/05/30 12:59:31;;;;;;;3.13;2.80;;;21.30;79.20;;;;;;5047828;28;20456;-70